createdAt,value
2024-05-09T00:07:42.290Z,6.30
2024-05-09T00:17:47.612Z,6.53
2024-05-09T00:27:52.813Z,6.93
2024-05-09T00:37:57.984Z,7.22
2024-05-09T00:48:05.603Z,7.97
2024-05-09T00:58:12.153Z,8.13
2024-05-09T01:08:17.908Z,7.80
2024-05-09T01:18:23.560Z,9.52
2024-05-09T01:28:28.737Z,9.30
2024-05-09T01:38:33.887Z,10.25
2024-05-09T01:48:39.329Z,10.45
2024-05-09T01:58:44.626Z,10.35
2024-05-09T02:08:49.719Z,10.52
2024-05-09T02:18:54.924Z,11.55
2024-05-09T02:29:00.233Z,10.60
2024-05-09T02:39:05.496Z,11.02
2024-05-09T02:49:10.780Z,11.45
2024-05-09T02:59:16.086Z,12.43
2024-05-09T03:09:23.764Z,11.70
2024-05-09T03:19:28.968Z,13.20
2024-05-09T03:29:34.418Z,13.00
2024-05-09T03:39:39.602Z,13.00
2024-05-09T03:49:44.818Z,12.68
2024-05-09T03:59:49.975Z,12.20
2024-05-09T04:09:55.113Z,13.18
2024-05-09T04:20:00.411Z,13.15
2024-05-09T04:30:09.861Z,12.45
2024-05-09T04:40:24.413Z,11.95
2024-05-09T04:50:38.973Z,11.75
2024-05-09T05:00:44.995Z,12.32
2024-05-09T05:10:50.384Z,11.48
2024-05-09T05:20:56.607Z,12.10
2024-05-09T05:31:01.894Z,12.07
2024-05-09T05:41:07.069Z,11.68
2024-05-09T05:51:12.320Z,11.27
2024-05-09T06:01:17.604Z,11.70
2024-05-09T06:11:22.818Z,12.27
2024-05-09T06:21:27.987Z,12.23
2024-05-09T06:31:33.129Z,12.60
2024-05-09T06:41:38.267Z,11.68
2024-05-09T06:51:43.415Z,12.73
2024-05-09T07:01:48.629Z,13.07
2024-05-09T07:11:53.910Z,12.63
2024-05-09T07:21:59.084Z,12.27
2024-05-09T07:32:04.597Z,10.57
2024-05-09T07:42:09.787Z,10.05
2024-05-09T07:53:29.772Z,11.10
2024-05-09T08:02:40.000Z,10.05
2024-05-09T08:12:45.378Z,10.27
2024-05-09T08:22:50.480Z,8.77
2024-05-09T08:32:55.755Z,7.88
2024-05-09T08:43:01.162Z,7.50
2024-05-09T08:53:06.969Z,7.22
2024-05-09T09:03:17.218Z,7.90
2024-05-09T09:13:22.508Z,6.90
2024-05-09T09:23:27.702Z,8.00
2024-05-09T09:33:33.319Z,5.50
2024-05-09T09:43:42.344Z,6.35
2024-05-09T09:53:48.933Z,7.13
2024-05-09T10:03:54.438Z,6.38
2024-05-09T10:14:00.857Z,7.78
2024-05-09T10:24:06.140Z,6.82
2024-05-09T10:34:22.562Z,7.30
2024-05-09T10:44:27.804Z,6.40
2024-05-09T10:54:39.517Z,6.40
2024-05-09T11:04:44.892Z,7.40
2024-05-09T11:14:54.077Z,7.50
2024-05-09T11:24:59.497Z,7.45
2024-05-09T11:35:05.017Z,6.80
2024-05-09T11:45:10.121Z,6.68
2024-05-09T11:55:15.498Z,7.18
2024-05-09T12:05:21.002Z,9.30
2024-05-09T12:15:25.761Z,8.38
2024-05-09T12:25:30.870Z,9.13
2024-05-09T12:35:36.254Z,8.75
2024-05-09T12:45:41.462Z,8.45
2024-05-09T12:55:53.605Z,8.10
2024-05-09T13:06:02.271Z,8.02
2024-05-09T13:16:07.589Z,10.35
2024-05-09T13:26:12.753Z,9.52
2024-05-09T13:36:18.014Z,8.80
2024-05-09T13:46:23.221Z,8.88
2024-05-09T13:56:28.394Z,7.95
2024-05-09T14:06:33.120Z,9.90
2024-05-09T14:16:39.066Z,8.35
2024-05-09T14:26:44.448Z,9.75
2024-05-09T14:36:49.863Z,9.20
2024-05-09T14:46:55.088Z,8.88
2024-05-09T14:57:00.421Z,9.13
2024-05-09T15:07:07.099Z,8.32
2024-05-09T15:17:13.338Z,8.77
2024-05-09T15:27:19.107Z,9.80
2024-05-09T15:37:24.470Z,9.82
2024-05-09T15:47:30.012Z,9.55
2024-05-09T15:57:35.396Z,10.05
2024-05-09T16:07:40.700Z,9.63
2024-05-09T16:17:46.541Z,10.95
2024-05-09T16:27:51.834Z,9.27
2024-05-09T16:37:57.270Z,11.63
2024-05-09T16:48:03.137Z,13.85
2024-05-09T16:58:09.097Z,12.90
2024-05-09T17:08:15.489Z,13.43
2024-05-09T17:18:21.082Z,13.25
2024-05-09T17:28:26.737Z,14.20
2024-05-09T17:38:32.036Z,14.85
2024-05-09T17:48:37.333Z,15.52
2024-05-09T17:58:42.900Z,15.20
2024-05-09T18:08:48.051Z,15.18
2024-05-09T18:18:53.450Z,16.55
2024-05-09T18:28:58.863Z,16.75
2024-05-09T18:39:04.259Z,17.80
2024-05-09T18:49:09.605Z,16.38
2024-05-09T18:59:14.824Z,16.83
2024-05-09T19:09:20.903Z,16.85
2024-05-09T19:19:26.283Z,18.10
2024-05-09T19:29:31.623Z,17.60
2024-05-09T19:39:37.022Z,18.10
2024-05-09T19:49:42.334Z,15.63
2024-05-09T19:59:47.575Z,16.05
2024-05-09T20:09:52.701Z,15.77
2024-05-09T20:19:58.087Z,16.38
2024-05-09T20:30:07.974Z,16.98
2024-05-09T20:40:25.319Z,17.15
2024-05-09T20:50:40.451Z,16.33
2024-05-09T21:00:47.764Z,17.88
2024-05-09T21:10:53.112Z,18.58
2024-05-09T21:20:58.382Z,18.35
2024-05-09T21:31:03.612Z,18.40
2024-05-09T21:41:09.163Z,18.83
2024-05-09T21:51:15.070Z,19.65
2024-05-09T22:01:22.072Z,22.63
2024-05-09T22:11:27.256Z,21.27
2024-05-09T22:21:32.495Z,23.77
2024-05-09T22:31:37.999Z,23.83
2024-05-09T22:41:44.589Z,23.60
2024-05-09T22:51:49.789Z,26.98
2024-05-09T23:01:54.993Z,25.13
2024-05-09T23:12:00.313Z,25.40
2024-05-09T23:22:05.662Z,26.80
2024-05-09T23:32:10.759Z,27.15
2024-05-09T23:42:15.848Z,28.08
2024-05-09T23:52:21.046Z,26.73
